createdAt,value
2018-06-12T00:01:33.723Z,13.50
2018-06-12T00:04:01.621Z,12.27
2018-06-12T00:06:29.475Z,12.57
2018-06-12T00:08:57.337Z,11.60
2018-06-12T00:11:25.183Z,13.40
2018-06-12T00:13:52.968Z,11.23
2018-06-12T00:16:20.837Z,12.63
2018-06-12T00:18:48.713Z,12.63
2018-06-12T00:21:16.650Z,12.40
2018-06-12T00:23:44.501Z,14.10
2018-06-12T00:26:12.598Z,12.47
2018-06-12T00:28:40.440Z,13.30
2018-06-12T00:31:08.295Z,11.97
2018-06-12T00:33:36.115Z,11.43
2018-06-12T00:36:05.141Z,12.50
2018-06-12T00:38:32.980Z,13.30
2018-06-12T00:41:00.924Z,12.27
2018-06-12T00:43:28.830Z,11.50
2018-06-12T00:45:56.656Z,12.53
2018-06-12T00:48:25.328Z,12.43
2018-06-12T00:50:53.332Z,12.80
2018-06-12T00:53:24.793Z,13.20
2018-06-12T00:55:52.646Z,12.77
2018-06-12T00:58:20.636Z,13.03
2018-06-12T01:00:48.715Z,13.70
2018-06-12T01:03:16.584Z,16.23
2018-06-12T01:05:45.525Z,14.60
2018-06-12T01:08:13.458Z,14.80
2018-06-12T01:10:41.245Z,14.73
2018-06-12T01:13:09.207Z,14.23
2018-06-12T01:15:36.980Z,13.93
2018-06-12T01:18:04.742Z,14.63
2018-06-12T01:20:32.541Z,15.00
2018-06-12T01:23:00.277Z,14.17
2018-06-12T01:25:28.144Z,13.93
2018-06-12T01:27:55.822Z,13.43
2018-06-12T01:30:23.708Z,13.27
2018-06-12T01:32:51.573Z,15.03
2018-06-12T01:35:19.422Z,13.30
2018-06-12T01:37:47.343Z,17.70
2018-06-12T01:40:15.192Z,16.07
2018-06-12T01:42:43.096Z,14.13
2018-06-12T01:45:10.933Z,13.93
2018-06-12T01:47:38.731Z,15.70
2018-06-12T01:50:06.732Z,14.93
2018-06-12T01:52:34.582Z,13.70
2018-06-12T01:55:02.474Z,11.70
2018-06-12T01:57:30.589Z,11.20
2018-06-12T01:59:58.465Z,11.80
2018-06-12T02:02:26.364Z,12.90
2018-06-12T02:04:54.184Z,12.53
2018-06-12T02:07:21.995Z,12.00
2018-06-12T02:09:49.777Z,12.33
2018-06-12T02:12:17.576Z,12.03
2018-06-12T02:14:45.432Z,11.03
2018-06-12T02:17:13.154Z,12.43
2018-06-12T02:19:41.037Z,11.20
2018-06-12T02:22:08.814Z,13.40
2018-06-12T02:24:36.508Z,12.90
2018-06-12T02:27:04.398Z,13.53
2018-06-12T02:29:32.272Z,13.13
2018-06-12T02:31:59.900Z,14.03
2018-06-12T02:34:27.729Z,14.63
2018-06-12T02:36:55.616Z,14.30
2018-06-12T02:39:23.493Z,18.37
2018-06-12T02:41:51.382Z,15.67
2018-06-12T02:44:19.173Z,15.47
2018-06-12T02:46:46.881Z,18.23
2018-06-12T02:49:14.696Z,19.63
2018-06-12T02:51:42.614Z,16.53
2018-06-12T02:54:10.244Z,16.67
2018-06-12T02:56:38.048Z,18.27
2018-06-12T02:59:05.803Z,17.73
2018-06-12T03:01:33.697Z,14.80
2018-06-12T03:04:01.610Z,16.13
2018-06-12T03:06:29.455Z,18.80
2018-06-12T03:08:57.246Z,17.10
2018-06-12T03:11:25.035Z,18.33
2018-06-12T03:13:53.036Z,16.13
2018-06-12T03:16:20.902Z,16.47
2018-06-12T03:18:48.694Z,16.10
2018-06-12T03:21:16.555Z,17.33
2018-06-12T03:23:44.368Z,17.40
2018-06-12T03:26:12.212Z,17.33
2018-06-12T03:28:40.137Z,15.73
2018-06-12T03:31:07.952Z,14.70
2018-06-12T03:33:35.852Z,15.67
2018-06-12T03:36:07.000Z,15.53
2018-06-12T03:38:34.890Z,16.47
2018-06-12T03:41:02.642Z,17.10
2018-06-12T03:43:30.505Z,15.20
2018-06-12T03:45:58.428Z,15.17
2018-06-12T03:48:26.484Z,13.67
2018-06-12T03:50:54.313Z,16.57
2018-06-12T03:53:22.214Z,15.53
2018-06-12T03:55:49.976Z,15.57
2018-06-12T03:58:17.787Z,14.67
2018-06-12T04:00:45.729Z,16.70
2018-06-12T04:03:13.749Z,14.30
2018-06-12T04:05:41.596Z,15.20
2018-06-12T04:08:09.528Z,13.80
2018-06-12T04:10:37.328Z,14.80
2018-06-12T04:13:05.971Z,15.27
2018-06-12T04:15:33.866Z,14.33
2018-06-12T04:18:01.783Z,15.50
2018-06-12T04:20:29.676Z,15.47
2018-06-12T04:22:57.541Z,14.67
2018-06-12T04:25:25.502Z,12.90
2018-06-12T04:28:04.598Z,13.90
2018-06-12T04:30:32.522Z,13.77
2018-06-12T04:33:01.921Z,13.30
2018-06-12T04:35:29.986Z,13.73
2018-06-12T04:38:04.769Z,15.30
2018-06-12T04:40:32.577Z,13.40
2018-06-12T04:43:00.391Z,13.70
2018-06-12T04:45:28.277Z,14.80
2018-06-12T04:47:56.190Z,13.47
2018-06-12T04:50:24.295Z,12.67
2018-06-12T04:52:52.208Z,13.37
2018-06-12T04:55:20.224Z,12.43
2018-06-12T04:57:48.644Z,26.00
2018-06-12T05:00:17.186Z,14.10
2018-06-12T05:02:44.923Z,12.53
2018-06-12T05:05:12.902Z,11.40
2018-06-12T05:07:40.587Z,12.67
2018-06-12T05:10:08.450Z,15.77
2018-06-12T05:12:36.358Z,12.70
2018-06-12T05:15:04.190Z,12.20
2018-06-12T05:17:36.326Z,11.57
2018-06-12T05:20:04.276Z,12.10
2018-06-12T05:22:32.084Z,12.27
2018-06-12T05:24:59.910Z,12.27
2018-06-12T05:27:27.708Z,10.67
2018-06-12T05:29:55.604Z,12.83
2018-06-12T05:32:23.532Z,12.80
2018-06-12T05:34:51.603Z,11.07
2018-06-12T05:37:19.896Z,10.87
2018-06-12T05:39:51.441Z,11.30
2018-06-12T05:42:20.011Z,10.37
2018-06-12T05:44:48.133Z,11.50
2018-06-12T05:47:16.017Z,10.83
2018-06-12T05:49:44.119Z,13.40
2018-06-12T05:52:12.225Z,10.30
2018-06-12T05:54:40.224Z,14.27
2018-06-12T05:57:08.078Z,10.17
2018-06-12T05:59:35.931Z,11.93
2018-06-12T06:02:03.927Z,12.67
2018-06-12T06:04:31.819Z,11.17
2018-06-12T06:06:59.736Z,13.53
2018-06-12T06:09:27.489Z,11.37
2018-06-12T06:11:55.369Z,11.00
2018-06-12T06:14:23.445Z,12.90
2018-06-12T06:16:51.558Z,9.63
2018-06-12T06:19:20.267Z,9.83
2018-06-12T06:21:48.181Z,9.73
2018-06-12T06:24:16.304Z,11.77
2018-06-12T06:26:44.112Z,10.57
2018-06-12T06:29:11.971Z,12.80
2018-06-12T06:31:39.919Z,10.27
2018-06-12T06:34:07.687Z,8.93
2018-06-12T06:36:35.491Z,11.87
2018-06-12T06:39:05.308Z,11.10
2018-06-12T06:41:33.095Z,11.60
2018-06-12T06:44:00.977Z,11.63
2018-06-12T06:46:28.867Z,12.67
2018-06-12T06:48:56.819Z,12.07
2018-06-12T06:51:24.618Z,17.63
2018-06-12T06:53:52.661Z,13.27
2018-06-12T06:56:20.945Z,15.93
2018-06-12T06:58:49.214Z,16.63
2018-06-12T07:01:17.103Z,13.73
2018-06-12T07:03:45.802Z,13.03
2018-06-12T07:06:14.499Z,19.33
2018-06-12T07:08:42.569Z,16.93
2018-06-12T07:11:10.547Z,17.33
2018-06-12T07:13:38.404Z,16.93
2018-06-12T07:16:06.276Z,18.33
2018-06-12T07:18:33.993Z,18.13
2018-06-12T07:21:16.844Z,17.97
2018-06-12T07:23:44.636Z,16.27
2018-06-12T07:26:13.416Z,20.83
2018-06-12T07:28:41.379Z,24.37
2018-06-12T07:31:11.004Z,21.93
2018-06-12T07:33:39.269Z,25.67
2018-06-12T07:36:07.589Z,24.60
2018-06-12T07:38:35.417Z,21.87
2018-06-12T07:41:03.284Z,24.70
2018-06-12T07:43:31.195Z,21.40
2018-06-12T07:45:59.150Z,22.47
2018-06-12T07:48:26.902Z,22.80
2018-06-12T07:50:54.733Z,23.57
2018-06-12T07:53:22.822Z,23.90
2018-06-12T07:55:51.722Z,23.43
2018-06-12T07:58:19.763Z,21.67
2018-06-12T08:00:47.752Z,22.80
2018-06-12T08:03:16.238Z,24.60
2018-06-12T08:05:59.200Z,24.53
2018-06-12T08:08:28.587Z,25.30
2018-06-12T08:10:56.482Z,24.00
2018-06-12T08:13:24.384Z,23.77
2018-06-12T08:15:52.174Z,25.47
2018-06-12T08:18:21.102Z,24.20
2018-06-12T08:20:48.990Z,26.27
2018-06-12T08:23:16.839Z,26.53
2018-06-12T08:25:44.766Z,28.30
2018-06-12T08:28:12.838Z,25.17
2018-06-12T08:30:40.670Z,27.67
2018-06-12T08:33:09.336Z,28.43
2018-06-12T08:35:37.231Z,28.83
2018-06-12T08:38:05.098Z,27.87
2018-06-12T08:40:32.964Z,28.20
2018-06-12T08:43:00.910Z,30.43
2018-06-12T08:45:28.873Z,30.10
2018-06-12T08:47:56.682Z,32.07
2018-06-12T08:50:24.969Z,32.10
2018-06-12T08:52:52.989Z,31.10
2018-06-12T08:55:21.841Z,31.90
2018-06-12T08:57:50.383Z,31.80
2018-06-12T09:00:19.073Z,31.27
2018-06-12T09:02:47.157Z,30.17
2018-06-12T09:05:15.001Z,31.17
2018-06-12T09:07:42.938Z,34.77
2018-06-12T09:10:10.878Z,34.00
2018-06-12T09:12:38.879Z,35.50
2018-06-12T09:15:06.844Z,36.60
2018-06-12T09:17:34.979Z,37.23
2018-06-12T09:20:02.889Z,36.90
2018-06-12T09:22:30.612Z,38.40
2018-06-12T09:24:58.671Z,40.27
2018-06-12T09:27:26.521Z,37.63
2018-06-12T09:29:54.632Z,37.73
2018-06-12T09:32:22.798Z,38.97
2018-06-12T09:34:51.072Z,38.77
2018-06-12T09:37:19.109Z,40.50
2018-06-12T09:39:47.016Z,39.23
2018-06-12T09:42:14.837Z,41.97
2018-06-12T09:44:42.797Z,38.73
2018-06-12T09:47:10.764Z,38.43
2018-06-12T09:49:38.696Z,39.03
2018-06-12T09:52:06.825Z,38.13
2018-06-12T09:54:34.808Z,38.93
2018-06-12T09:57:02.652Z,39.73
2018-06-12T09:59:30.432Z,35.07
2018-06-12T10:01:58.476Z,32.93
2018-06-12T10:04:26.358Z,30.03
2018-06-12T10:06:54.221Z,30.23
2018-06-12T10:09:22.456Z,29.03
2018-06-12T10:11:50.730Z,29.63
2018-06-12T10:14:18.593Z,31.10
2018-06-12T10:16:46.402Z,28.67
2018-06-12T10:19:14.232Z,30.40
2018-06-12T10:21:42.333Z,32.67
2018-06-12T10:24:10.138Z,33.80
2018-06-12T10:26:38.076Z,31.80
2018-06-12T10:29:05.967Z,30.67
2018-06-12T10:31:33.888Z,31.17
2018-06-12T10:34:01.754Z,31.33
2018-06-12T10:36:29.662Z,32.40
2018-06-12T10:38:57.386Z,33.23
2018-06-12T10:41:25.267Z,30.60
2018-06-12T10:43:53.290Z,36.37
2018-06-12T10:46:21.448Z,31.17
2018-06-12T10:48:49.880Z,31.73
2018-06-12T10:51:17.919Z,36.27
2018-06-12T10:53:45.615Z,37.90
2018-06-12T10:56:13.601Z,35.90
2018-06-12T10:58:41.428Z,34.27
2018-06-12T11:01:09.348Z,35.37
2018-06-12T11:03:37.295Z,33.20
2018-06-12T11:06:05.177Z,36.30
2018-06-12T11:08:37.060Z,31.97
2018-06-12T11:11:05.414Z,36.83
2018-06-12T11:13:34.796Z,35.03
2018-06-12T11:16:02.966Z,36.83
2018-06-12T11:18:31.854Z,35.77
2018-06-12T11:20:59.853Z,37.33
2018-06-12T11:23:27.716Z,35.83
2018-06-12T11:25:55.651Z,38.30
2018-06-12T11:28:23.656Z,38.10
2018-06-12T11:30:52.104Z,34.47
2018-06-12T11:33:20.333Z,36.30
2018-06-12T11:35:48.273Z,32.20
2018-06-12T11:38:16.221Z,33.33
2018-06-12T11:40:43.977Z,34.47
2018-06-12T11:43:11.931Z,34.13
2018-06-12T11:45:39.890Z,32.33
2018-06-12T11:48:07.888Z,33.23
2018-06-12T11:50:35.888Z,35.33
2018-06-12T11:53:03.933Z,35.80
2018-06-12T11:55:32.855Z,37.60
2018-06-12T11:58:00.746Z,38.27
2018-06-12T12:00:29.692Z,37.53
2018-06-12T12:02:57.383Z,36.87
2018-06-12T12:05:25.477Z,38.63
2018-06-12T12:07:53.636Z,38.53
2018-06-12T12:10:22.018Z,38.40
2018-06-12T12:12:50.100Z,36.73
2018-06-12T12:15:17.954Z,38.20
2018-06-12T12:17:45.856Z,36.90
2018-06-12T12:20:14.007Z,31.10
2018-06-12T12:22:45.376Z,33.23
2018-06-12T12:25:13.309Z,33.17
2018-06-12T12:27:42.236Z,32.77
2018-06-12T12:30:10.021Z,30.83
2018-06-12T12:32:37.905Z,29.83
2018-06-12T12:35:06.396Z,29.90
2018-06-12T12:37:34.210Z,30.43
2018-06-12T12:40:02.124Z,31.67
2018-06-12T12:42:29.858Z,30.20
2018-06-12T12:44:57.738Z,28.83
2018-06-12T12:47:32.570Z,29.47
2018-06-12T12:50:00.654Z,26.07
2018-06-12T12:52:28.552Z,28.80
2018-06-12T12:54:56.406Z,28.83
2018-06-12T12:57:24.497Z,28.83
2018-06-12T12:59:52.597Z,27.50
2018-06-12T13:02:23.004Z,26.43
2018-06-12T13:04:52.207Z,25.43
2018-06-12T13:07:23.622Z,28.43
2018-06-12T13:09:51.916Z,27.43
2018-06-12T13:12:20.337Z,27.33
2018-06-12T13:14:48.382Z,26.47
2018-06-12T13:17:18.502Z,24.13
2018-06-12T13:19:47.252Z,26.07
2018-06-12T13:22:15.208Z,24.77
2018-06-12T13:24:43.318Z,25.23
2018-06-12T13:27:11.238Z,25.70
2018-06-12T13:29:39.103Z,26.03
2018-06-12T13:32:07.124Z,30.33
2018-06-12T13:34:35.166Z,25.57
2018-06-12T13:37:03.023Z,25.60
2018-06-12T13:39:30.697Z,25.30
2018-06-12T13:41:58.497Z,24.77
2018-06-12T13:44:26.272Z,24.03
2018-06-12T13:46:54.008Z,24.97
2018-06-12T13:49:22.438Z,25.07
2018-06-12T13:51:51.007Z,23.50
2018-06-12T13:54:18.901Z,22.50
2018-06-12T13:56:46.911Z,23.13
2018-06-12T13:59:14.792Z,23.67
2018-06-12T14:01:49.621Z,22.90
2018-06-12T14:04:17.517Z,23.63
2018-06-12T14:06:46.585Z,23.27
2018-06-12T14:09:14.455Z,23.40
2018-06-12T14:11:42.229Z,22.70
2018-06-12T14:14:09.973Z,22.33
2018-06-12T14:16:37.949Z,23.40
2018-06-12T14:19:05.836Z,22.20
2018-06-12T14:21:33.731Z,22.67
2018-06-12T14:24:01.614Z,22.27
2018-06-12T14:26:29.472Z,23.07
2018-06-12T14:28:57.353Z,22.90
2018-06-12T14:31:25.449Z,22.73
2018-06-12T14:33:53.788Z,22.20
2018-06-12T14:36:21.833Z,22.47
2018-06-12T14:38:50.543Z,23.63
2018-06-12T14:41:18.477Z,23.00
2018-06-12T14:43:46.405Z,25.40
2018-06-12T14:46:15.343Z,25.37
2018-06-12T14:48:43.243Z,23.80
2018-06-12T14:51:11.091Z,26.47
2018-06-12T14:53:38.983Z,26.23
2018-06-12T14:56:06.823Z,26.40
2018-06-12T14:58:34.726Z,27.33
2018-06-12T15:01:02.441Z,25.83
2018-06-12T15:03:30.259Z,27.40
2018-06-12T15:05:58.014Z,27.20
2018-06-12T15:08:28.011Z,28.50
2018-06-12T15:10:56.814Z,25.43
2018-06-12T15:13:24.809Z,28.87
2018-06-12T15:15:57.970Z,26.53
2018-06-12T15:18:26.008Z,27.93
2018-06-12T15:20:53.838Z,27.97
2018-06-12T15:23:21.714Z,28.33
2018-06-12T15:25:49.794Z,27.87
2018-06-12T15:28:17.705Z,26.30
2018-06-12T15:30:45.668Z,27.03
2018-06-12T15:33:13.666Z,27.13
2018-06-12T15:35:41.545Z,25.27
2018-06-12T15:38:09.397Z,26.90
2018-06-12T15:40:37.240Z,25.73
2018-06-12T15:43:05.166Z,24.10
2018-06-12T15:45:34.197Z,26.63
2018-06-12T15:48:02.071Z,26.43
2018-06-12T15:50:29.998Z,25.03
2018-06-12T15:52:57.795Z,22.30
2018-06-12T15:55:25.572Z,22.47
2018-06-12T15:57:53.664Z,24.60
2018-06-12T16:00:21.628Z,23.50
2018-06-12T16:02:49.603Z,22.30
2018-06-12T16:05:17.954Z,20.60
2018-06-12T16:07:45.841Z,21.07
2018-06-12T16:10:14.270Z,21.23
2018-06-12T16:12:42.089Z,19.77
2018-06-12T16:15:09.906Z,18.97
2018-06-12T16:17:38.366Z,19.40
2018-06-12T16:20:06.153Z,17.80
2018-06-12T16:22:34.068Z,17.93
2018-06-12T16:25:01.946Z,16.97
2018-06-12T16:27:29.820Z,15.60
2018-06-12T16:29:57.692Z,16.13
2018-06-12T16:32:25.422Z,15.40
2018-06-12T16:34:53.391Z,15.87
2018-06-12T16:37:21.596Z,14.43
2018-06-12T16:39:49.414Z,13.67
2018-06-12T16:42:17.179Z,12.30
2018-06-12T16:44:45.130Z,13.63
2018-06-12T16:47:12.905Z,11.97
2018-06-12T16:49:40.860Z,14.97
2018-06-12T16:52:08.865Z,15.07
2018-06-12T16:54:36.806Z,13.60
2018-06-12T16:57:04.676Z,12.90
2018-06-12T16:59:32.636Z,12.87
2018-06-12T17:02:01.035Z,11.60
2018-06-12T17:04:29.573Z,12.87
2018-06-12T17:06:57.453Z,13.17
2018-06-12T17:09:25.452Z,11.90
2018-06-12T17:11:53.546Z,12.20
2018-06-12T17:14:21.819Z,12.60
2018-06-12T17:16:50.381Z,10.63
2018-06-12T17:19:18.102Z,14.60
2018-06-12T17:21:46.001Z,11.63
2018-06-12T17:24:13.889Z,10.80
2018-06-12T17:26:41.929Z,15.10
2018-06-12T17:29:09.760Z,10.50
2018-06-12T17:31:37.523Z,10.50
2018-06-12T17:34:05.361Z,11.87
2018-06-12T17:36:33.260Z,10.57
2018-06-12T17:39:01.048Z,9.57
2018-06-12T17:41:28.997Z,15.30
2018-06-12T17:43:56.859Z,8.47
2018-06-12T17:46:24.778Z,12.53
2018-06-12T17:48:59.023Z,8.03
2018-06-12T17:51:26.921Z,8.90
2018-06-12T17:53:54.925Z,12.23
2018-06-12T17:56:23.651Z,8.47
2018-06-12T17:58:51.641Z,11.77
2018-06-12T18:01:19.295Z,8.33
2018-06-12T18:03:47.129Z,9.50
2018-06-12T18:06:15.120Z,9.30
2018-06-12T18:08:42.869Z,12.40
2018-06-12T18:11:10.784Z,10.27
2018-06-12T18:13:41.580Z,8.33
2018-06-12T18:16:09.636Z,9.33
2018-06-12T18:18:37.679Z,9.70
2018-06-12T18:21:05.776Z,10.47
2018-06-12T18:23:33.701Z,7.00
2018-06-12T18:26:01.593Z,9.10
2018-06-12T18:28:29.770Z,8.30
2018-06-12T18:30:57.864Z,8.80
2018-06-12T18:33:29.296Z,9.87
2018-06-12T18:35:57.166Z,8.77
2018-06-12T18:38:24.990Z,6.50
2018-06-12T18:40:53.778Z,7.57
2018-06-12T18:43:22.159Z,9.27
2018-06-12T18:45:52.320Z,7.97
2018-06-12T18:48:20.781Z,9.73
2018-06-12T18:50:48.949Z,6.40
2018-06-12T18:53:21.954Z,8.00
2018-06-12T18:55:51.639Z,7.57
2018-06-12T18:58:20.415Z,9.93
2018-06-12T19:00:48.257Z,7.07
2018-06-12T19:03:23.423Z,9.43
2018-06-12T19:05:51.916Z,8.00
2018-06-12T19:08:20.764Z,8.10
2018-06-12T19:10:49.291Z,10.27
2018-06-12T19:13:27.253Z,11.83
2018-06-12T19:15:58.090Z,6.60
2018-06-12T19:18:26.254Z,7.30
2018-06-12T19:20:54.803Z,6.77
2018-06-12T19:23:23.193Z,6.43
2018-06-12T19:25:52.700Z,7.07
2018-06-12T19:28:21.955Z,6.93
2018-06-12T19:30:50.209Z,7.63
2018-06-12T19:33:18.089Z,10.67
2018-06-12T19:35:46.053Z,7.53
2018-06-12T19:38:13.805Z,8.43
2018-06-12T19:40:41.675Z,10.50
2018-06-12T19:43:09.657Z,13.60
2018-06-12T19:45:37.649Z,8.53
2018-06-12T19:48:06.203Z,8.97
2018-06-12T19:50:34.445Z,8.73
2018-06-12T19:53:02.578Z,8.87
2018-06-12T19:55:30.627Z,9.07
2018-06-12T19:57:58.875Z,6.97
2018-06-12T20:00:27.276Z,7.17
2018-06-12T20:02:55.301Z,6.60
2018-06-12T20:05:23.406Z,8.53
2018-06-12T20:07:51.072Z,9.13
2018-06-12T20:10:19.172Z,6.83
2018-06-12T20:12:47.011Z,8.43
2018-06-12T20:15:14.818Z,8.43
2018-06-12T20:17:42.810Z,7.30
2018-06-12T20:20:10.761Z,8.57
2018-06-12T20:22:38.587Z,7.30
2018-06-12T20:25:06.745Z,8.97
2018-06-12T20:27:34.804Z,4.47
2018-06-12T20:30:08.630Z,5.63
2018-06-12T20:32:37.335Z,5.20
2018-06-12T20:35:05.337Z,5.17
2018-06-12T20:37:33.306Z,6.70
2018-06-12T20:40:01.714Z,6.90
2018-06-12T20:42:29.601Z,6.83
2018-06-12T20:44:57.553Z,5.57
2018-06-12T20:47:25.396Z,7.60
2018-06-12T20:49:53.447Z,6.40
2018-06-12T20:52:22.129Z,7.97
2018-06-12T20:54:54.009Z,4.97
2018-06-12T20:57:22.035Z,7.93
2018-06-12T20:59:50.544Z,4.93
2018-06-12T21:02:18.294Z,8.70
2018-06-12T21:04:46.054Z,6.83
2018-06-12T21:07:14.049Z,6.73
2018-06-12T21:09:41.822Z,5.37
2018-06-12T21:12:09.680Z,6.60
2018-06-12T21:14:37.407Z,5.43
2018-06-12T21:17:05.243Z,8.73
2018-06-12T21:19:33.069Z,6.77
2018-06-12T21:22:00.950Z,9.13
2018-06-12T21:24:28.772Z,9.13
2018-06-12T21:26:56.421Z,6.30
2018-06-12T21:29:45.282Z,7.63
2018-06-12T21:32:13.037Z,6.57
2018-06-12T21:34:40.913Z,5.27
2018-06-12T21:37:19.645Z,5.70
2018-06-12T21:39:47.416Z,6.30
2018-06-12T21:42:15.764Z,5.67
2018-06-12T21:44:44.538Z,9.27
2018-06-12T21:47:12.562Z,5.27
2018-06-12T21:49:53.982Z,6.83
2018-06-12T21:52:21.869Z,5.67
2018-06-12T21:54:49.699Z,6.60
2018-06-12T21:57:17.529Z,5.50
2018-06-12T21:59:45.334Z,7.63
2018-06-12T22:02:23.820Z,5.63
2018-06-12T22:04:51.784Z,9.20
2018-06-12T22:07:20.401Z,5.53
2018-06-12T22:09:48.163Z,7.97
2018-06-12T22:12:16.007Z,8.73
2018-06-12T22:14:43.761Z,5.00
2018-06-12T22:17:11.501Z,6.30
2018-06-12T22:19:39.308Z,7.60
2018-06-12T22:22:07.229Z,10.63
2018-06-12T22:24:34.905Z,6.07
2018-06-12T22:27:02.647Z,10.83
2018-06-12T22:29:30.514Z,6.90
2018-06-12T22:31:58.441Z,7.53
2018-06-12T22:34:26.296Z,7.50
2018-06-12T22:36:54.136Z,5.83
2018-06-12T22:39:21.925Z,6.27
2018-06-12T22:41:49.822Z,7.40
2018-06-12T22:44:17.592Z,8.60
2018-06-12T22:46:45.612Z,6.90
2018-06-12T22:49:13.413Z,9.57
2018-06-12T22:51:41.220Z,6.70
2018-06-12T22:54:09.161Z,6.97
2018-06-12T22:56:40.297Z,7.97
2018-06-12T22:59:08.291Z,7.37
2018-06-12T23:01:36.206Z,6.60
2018-06-12T23:04:04.114Z,6.87
2018-06-12T23:06:31.922Z,6.90
2018-06-12T23:08:59.792Z,6.30
2018-06-12T23:11:27.611Z,4.87
2018-06-12T23:13:55.323Z,7.63
2018-06-12T23:16:23.227Z,7.57
2018-06-12T23:18:51.085Z,6.93
2018-06-12T23:21:45.566Z,6.33
2018-06-12T23:24:13.448Z,5.80
2018-06-12T23:26:42.222Z,6.57
2018-06-12T23:29:09.978Z,5.20
2018-06-12T23:31:37.889Z,5.23
2018-06-12T23:34:05.747Z,5.30
2018-06-12T23:36:33.466Z,8.33
2018-06-12T23:39:01.366Z,8.93
2018-06-12T23:41:32.471Z,5.63
2018-06-12T23:44:00.237Z,6.63
2018-06-12T23:46:28.042Z,7.43
2018-06-12T23:48:55.864Z,7.83
2018-06-12T23:51:23.781Z,8.50
2018-06-12T23:53:51.775Z,6.40
2018-06-12T23:56:19.692Z,7.17
2018-06-12T23:58:47.558Z,6.60
